Time;durP1;ratioP1;P1;durP2;ratioP2;P2;SDS_P1;SDS_P2;PMS_P1;PMS_P2;Temp;Humidity;BMP_temperature;BMP_pressure;BME280_temperature;BME280_humidity;BME280_pressure;Samples;Min_cycle;Max_cycle;Signal;HPM_P1;HPM_P2
2022/06/12 00:00:36;;;;;;;8.95;7.38;;;487.30;2380.80;;;;;;5116903;27;20023;-78
2022/06/12 00:03:04;;;;;;;9.02;7.38;;;512.00;2380.80;;;;;;5117731;27;20114;-78
2022/06/12 00:05:34;;;;;;;8.63;7.82;;;512.10;2380.80;;;;;;5136281;27;20037;-79
2022/06/12 00:08:00;;;;;;;9.88;8.18;;;512.00;2380.80;;;;;;5117875;27;20107;-79
2022/06/12 00:10:26;;;;;;;9.43;7.45;;;512.00;2380.80;;;;;;5117354;27;20653;-79
2022/06/12 00:12:52;;;;;;;12.20;8.20;;;512.10;2380.80;;;;;;5117764;27;20035;-79
2022/06/12 00:15:22;;;;;;;9.00;7.93;;;512.10;2380.80;;;;;;5117590;27;20023;-78
2022/06/12 00:17:48;;;;;;;10.50;8.73;;;512.20;2380.80;;;;;;5117274;27;20031;-79
2022/06/12 00:20:15;;;;;;;13.90;8.65;;;512.10;2380.80;;;;;;5117526;27;20118;-79
2022/06/12 00:22:43;;;;;;;12.60;8.68;;;512.10;2380.80;;;;;;5117509;27;20019;-79
2022/06/12 00:25:12;;;;;;;12.05;8.82;;;512.10;2380.80;;;;;;5117495;27;20027;-79
2022/06/12 00:27:38;;;;;;;10.50;8.35;;;512.10;2380.80;;;;;;5117156;27;20031;-78
2022/06/12 00:30:07;;;;;;;11.27;7.82;;;512.10;2380.80;;;;;;5117409;27;20422;-79
2022/06/12 00:32:33;;;;;;;8.52;7.72;;;512.10;2380.80;;;;;;5117333;27;20024;-78
2022/06/12 00:34:59;;;;;;;9.98;8.85;;;512.00;2380.80;;;;;;5116646;27;20050;-79
2022/06/12 00:37:27;;;;;;;11.10;8.45;;;512.00;2380.80;;;;;;5117277;27;20038;-79
2022/06/12 00:39:56;;;;;;;11.07;9.57;;;512.00;2380.80;;;;;;5135907;27;20035;-79
2022/06/12 00:42:39;;;;;;;9.55;8.55;;;487.30;2380.80;;;;;;5116747;27;20023;-79
2022/06/12 00:45:40;;;;;;;9.48;8.48;;;487.30;2380.80;;;;;;5100033;28;20077;-79
2022/06/12 00:48:22;;;;;;;10.52;8.35;;;487.30;2380.80;;;;;;5095650;28;20059;-77
2022/06/12 00:50:55;;;;;;;14.27;9.98;;;487.30;2380.80;;;;;;5096322;28;20036;-79
2022/06/12 00:53:27;;;;;;;12.43;8.98;;;487.20;2380.80;;;;;;5096258;28;20078;-78
2022/06/12 00:55:59;;;;;;;11.30;9.45;;;487.20;2380.80;;;;;;5096354;28;20042;-78
2022/06/12 00:58:28;;;;;;;10.32;8.75;;;487.20;2380.80;;;;;;5096517;28;20122;-78
2022/06/12 01:00:54;;;;;;;13.65;9.13;;;487.10;2380.80;;;;;;5096452;28;20024;-78
2022/06/12 01:03:22;;;;;;;17.38;9.85;;;487.10;2380.80;;;;;;5095933;28;20039;-79
2022/06/12 01:08:34;;;;;;;13.73;10.07;;;487.10;2380.80;;;;;;5114460;28;20046;-80
2022/06/12 01:11:05;;;;;;;14.20;9.38;;;487.20;2380.80;;;;;;5096039;28;20028;-80
2022/06/12 01:13:36;;;;;;;10.27;9.18;;;487.20;2380.80;;;;;;5096135;28;20110;-80
2022/06/12 01:16:09;;;;;;;10.93;9.55;;;487.20;2380.80;;;;;;5096263;28;20023;-80
2022/06/12 01:18:41;;;;;;;10.45;9.45;;;487.30;2380.80;;;;;;5095888;28;20085;-80
2022/06/12 01:21:25;;;;;;;12.77;10.75;;;487.20;2380.80;;;;;;5096239;28;20028;-79
2022/06/12 01:24:12;;;;;;;11.15;10.05;;;487.20;2380.80;;;;;;5095704;28;20023;-80
2022/06/12 01:26:59;;;;;;;11.50;9.70;;;487.20;2380.80;;;;;;5113568;28;20112;-80
2022/06/12 01:29:50;;;;;;;10.48;9.18;;;487.20;2380.80;;;;;;5095955;28;20463;-80
2022/06/12 01:32:28;;;;;;;10.75;9.07;;;487.20;2380.80;;;;;;5095809;28;20449;-79
2022/06/12 01:35:03;;;;;;;10.30;8.57;;;487.20;2380.80;;;;;;5096002;28;20032;-80
2022/06/12 01:37:52;;;;;;;9.43;8.43;;;487.20;2380.80;;;;;;5095982;28;20117;-79
2022/06/12 01:40:47;;;;;;;9.98;8.65;;;487.20;2380.80;;;;;;5114109;28;20065;-76
2022/06/12 01:43:30;;;;;;;10.05;8.48;;;487.20;2380.80;;;;;;5114122;28;20066;-77
2022/06/12 01:46:16;;;;;;;9.80;8.80;;;487.20;2380.80;;;;;;5095775;28;20100;-77
2022/06/12 01:48:54;;;;;;;10.43;8.30;;;487.10;2380.80;;;;;;5095749;28;20040;-76
2022/06/12 01:51:36;;;;;;;9.20;8.00;;;487.10;2380.80;;;;;;5095738;28;20038;-76
2022/06/12 01:54:29;;;;;;;10.93;7.90;;;487.10;2380.80;;;;;;5095250;28;20051;-77
2022/06/12 01:57:09;;;;;;;10.07;8.10;;;487.10;2380.80;;;;;;5113002;28;20023;-76
2022/06/12 01:59:54;;;;;;;10.27;8.00;;;487.20;2380.80;;;;;;5115184;28;20433;-76
2022/06/12 02:02:26;;;;;;;9.35;7.78;;;487.20;2380.80;;;;;;5115758;28;20033;-79
2022/06/12 02:05:29;;;;;;;11.47;8.30;;;487.20;2380.80;;;;;;5115831;28;20027;-79
2022/06/12 02:08:16;;;;;;;10.57;7.60;;;487.20;2380.80;;;;;;5115658;28;20015;-79
2022/06/12 02:13:55;;;;;;;9.00;7.68;;;487.20;2380.80;;;;;;5134015;28;20436;-79
2022/06/12 02:16:30;;;;;;;8.95;7.43;;;487.10;2380.80;;;;;;5115784;28;20054;-80
2022/06/12 02:19:00;;;;;;;9.65;7.60;;;487.10;2380.80;;;;;;5119916;27;20027;-79
2022/06/12 02:21:28;;;;;;;10.35;8.05;;;487.10;2380.80;;;;;;5118789;27;20035;-79
2022/06/12 02:24:00;;;;;;;9.55;7.78;;;487.10;2380.80;;;;;;5138602;27;20028;-79
2022/06/12 02:26:38;;;;;;;11.75;7.65;;;487.10;2380.80;;;;;;5119986;27;20024;-79
2022/06/12 02:29:11;;;;;;;10.10;7.00;;;487.10;2380.80;;;;;;5119647;27;20055;-79
2022/06/12 02:31:41;;;;;;;8.15;7.05;;;487.10;2380.80;;;;;;5119826;27;20031;-79
2022/06/12 02:34:16;;;;;;;8.43;7.18;;;487.10;2380.80;;;;;;5119486;27;20045;-79
2022/06/12 02:36:48;;;;;;;8.43;6.75;;;487.10;2380.80;;;;;;5119387;27;20031;-79
2022/06/12 02:39:45;;;;;;;8.30;7.03;;;487.10;2380.80;;;;;;5119606;27;20126;-79
2022/06/12 02:42:13;;;;;;;12.52;7.25;;;487.10;2380.80;;;;;;5097317;27;20031;-80
2022/06/12 02:45:03;;;;;;;9.18;7.53;;;487.10;2380.80;;;;;;5119535;27;20456;-79
2022/06/12 02:47:32;;;;;;;10.10;7.22;;;487.10;2380.80;;;;;;5138282;27;20031;-79
2022/06/12 02:49:59;;;;;;;8.65;7.32;;;487.10;2380.80;;;;;;5118989;27;20476;-77
2022/06/12 02:52:41;;;;;;;9.52;7.05;;;487.10;2380.80;;;;;;5119353;27;20027;-77
2022/06/12 02:55:19;;;;;;;10.48;7.95;;;487.10;2380.80;;;;;;5115367;28;20051;-77
2022/06/12 02:58:19;;;;;;;8.52;7.38;;;487.10;2380.80;;;;;;5115836;28;20039;-76
2022/06/12 03:00:45;;;;;;;11.23;7.07;;;487.10;2380.80;;;;;;5115890;28;20084;-78
2022/06/12 03:03:31;;;;;;;8.90;7.53;;;487.10;2380.80;;;;;;5115416;28;20028;-76
2022/06/12 03:05:59;;;;;;;10.55;8.05;;;487.10;2380.80;;;;;;5115775;28;20027;-77
2022/06/12 03:08:30;;;;;;;10.23;7.45;;;487.10;2380.80;;;;;;5116773;28;20024;-77
2022/06/12 03:11:07;;;;;;;11.80;8.07;;;487.10;2380.80;;;;;;5115343;28;20031;-77
2022/06/12 03:13:33;;;;;;;8.20;7.40;;;487.20;2380.80;;;;;;5115532;28;20028;-76
2022/06/12 03:16:28;;;;;;;11.15;8.07;;;487.20;2380.80;;;;;;5115218;28;20020;-77
2022/06/12 03:18:58;;;;;;;8.88;8.05;;;487.20;2380.80;;;;;;5112022;28;20039;-77
2022/06/12 03:22:02;;;;;;;11.18;9.45;;;487.20;2380.80;;;;;;5116694;28;20023;-76
2022/06/12 03:24:32;;;;;;;10.73;9.65;;;487.20;2380.80;;;;;;5033420;28;20033;-77
2022/06/12 03:27:16;;;;;;;12.25;9.82;;;487.20;2380.80;;;;;;5016783;28;20069;-76
2022/06/12 03:30:04;;;;;;;14.02;10.35;;;487.20;2380.80;;;;;;5075360;28;20473;-77
2022/06/12 03:32:48;;;;;;;11.00;10.00;;;487.30;2380.80;;;;;;5115186;28;20027;-77
2022/06/12 03:35:37;;;;;;;11.93;10.63;;;487.30;2380.80;;;;;;5115239;28;20034;-76
2022/06/12 03:38:36;;;;;;;11.85;10.73;;;487.30;2380.80;;;;;;5114857;28;20377;-76
2022/06/12 03:41:08;;;;;;;11.15;10.05;;;487.30;2380.80;;;;;;5115064;28;20028;-77
2022/06/12 03:43:43;;;;;;;14.40;9.80;;;487.20;2380.80;;;;;;5115129;28;20114;-79
2022/06/12 03:46:34;;;;;;;10.85;9.75;;;487.20;2380.80;;;;;;5116254;28;20022;-80
2022/06/12 03:49:07;;;;;;;11.55;10.13;;;487.20;2380.80;;;;;;5114917;28;20035;-77
2022/06/12 03:51:55;;;;;;;11.00;9.85;;;487.20;2380.80;;;;;;5114743;28;20038;-79
2022/06/12 03:55:00;;;;;;;10.98;9.98;;;487.20;2380.80;;;;;;5114814;28;20544;-79
2022/06/12 03:57:53;;;;;;;12.55;11.35;;;487.20;2380.80;;;;;;5100186;28;20431;-79
2022/06/12 04:00:31;;;;;;;11.35;10.25;;;487.20;2380.80;;;;;;5114897;28;20046;-79
2022/06/12 04:03:06;;;;;;;11.95;10.73;;;487.30;2380.80;;;;;;5116576;28;20153;-79
2022/06/12 04:05:37;;;;;;;12.35;11.05;;;487.30;2380.80;;;;;;5115256;28;20558;-77
2022/06/12 04:08:06;;;;;;;13.88;11.15;;;487.30;2380.80;;;;;;5138629;28;20028;-79
2022/06/12 04:10:35;;;;;;;13.02;11.82;;;487.30;2380.80;;;;;;5138032;28;20080;-78
2022/06/12 04:13:03;;;;;;;12.90;11.65;;;487.30;2380.80;;;;;;5124472;28;20034;-80
2022/06/12 04:15:56;;;;;;;13.30;12.00;;;487.20;2380.80;;;;;;5115775;28;20180;-80
2022/06/12 04:18:23;;;;;;;;;;;487.30;2380.80;;;;;;5113709;28;20039;-80
2022/06/12 04:20:54;;;;;;;14.20;12.70;;;487.30;2380.80;;;;;;5115274;28;19903;-80
2022/06/12 04:23:32;;;;;;;16.65;13.82;;;487.20;2380.80;;;;;;5114310;28;20020;-79
2022/06/12 04:26:09;;;;;;;14.40;12.90;;;487.30;2380.80;;;;;;5114010;28;20072;-80
2022/06/12 04:28:39;;;;;;;15.20;13.73;;;487.30;2380.80;;;;;;5114312;28;20081;-80
2022/06/12 04:31:18;;;;;;;14.65;13.15;;;487.30;2380.80;;;;;;5114010;28;20031;-79
2022/06/12 04:34:00;;;;;;;16.30;14.65;;;512.00;2380.80;;;;;;5113764;28;20019;-79
2022/06/12 04:36:26;;;;;;;16.08;14.48;;;487.30;2380.80;;;;;;5113905;28;20020;-80
2022/06/12 04:38:53;;;;;;;17.95;15.18;;;487.30;2380.80;;;;;;5113922;28;20084;-79
2022/06/12 04:41:26;;;;;;;17.02;15.23;;;512.00;2380.80;;;;;;5112832;28;20024;-79
2022/06/12 04:43:52;;;;;;;17.67;15.98;;;512.00;2380.80;;;;;;5113792;28;20493;-80
2022/06/12 04:46:19;;;;;;;18.65;16.95;;;512.00;2380.80;;;;;;5115038;28;20028;-80
2022/06/12 04:48:48;;;;;;;17.98;16.20;;;487.30;2380.80;;;;;;5113334;28;20063;-80
2022/06/12 04:51:15;;;;;;;21.00;19.00;;;512.00;2380.80;;;;;;5113632;28;20032;-80
2022/06/12 04:53:42;;;;;;;20.80;18.88;;;512.00;2380.80;;;;;;5113053;28;20566;-80
2022/06/12 04:56:09;;;;;;;20.30;18.38;;;512.00;2380.80;;;;;;5113470;28;20093;-80
2022/06/12 04:58:36;;;;;;;22.20;20.00;;;512.10;2380.80;;;;;;5113630;28;20119;-79
2022/06/12 05:01:03;;;;;;;23.42;21.33;;;512.10;2380.80;;;;;;5114136;28;20032;-80
2022/06/12 05:03:29;;;;;;;22.50;20.20;;;512.10;2380.80;;;;;;5113410;28;20035;-80
2022/06/12 05:05:54;;;;;;;22.40;20.30;;;512.10;2380.80;;;;;;5113467;28;20019;-79
2022/06/12 05:08:21;;;;;;;22.17;20.02;;;512.10;2380.80;;;;;;5113023;28;20422;-79
2022/06/12 05:10:47;;;;;;;23.15;20.95;;;512.10;2380.80;;;;;;5114843;28;20039;-79
2022/06/12 05:13:13;;;;;;;23.52;21.27;;;512.10;2380.80;;;;;;5113222;28;20524;-79
2022/06/12 05:15:39;;;;;;;22.15;20.15;;;512.10;2380.80;;;;;;5112874;28;20114;-80
2022/06/12 05:18:07;;;;;;;23.48;21.20;;;512.20;2380.80;;;;;;5114259;28;20106;-79
2022/06/12 05:20:35;;;;;;;22.48;20.48;;;512.20;2380.80;;;;;;5114084;28;20103;-80
2022/06/12 05:23:03;;;;;;;23.52;21.48;;;512.30;2380.80;;;;;;5112770;28;20525;-80
2022/06/12 05:25:30;;;;;;;23.58;21.17;;;512.10;2380.80;;;;;;5113057;28;20024;-80
2022/06/12 05:27:56;;;;;;;22.73;20.42;;;512.20;2380.80;;;;;;5112985;28;20055;-79
2022/06/12 05:30:26;;;;;;;22.00;19.85;;;487.30;2380.80;;;;;;5113915;28;20023;-79
2022/06/12 05:32:54;;;;;;;24.30;21.77;;;512.20;2380.80;;;;;;5113972;28;20027;-79
2022/06/12 05:35:21;;;;;;;24.90;22.33;;;512.20;2380.80;;;;;;5112928;28;20471;-80
2022/06/12 05:37:48;;;;;;;22.27;20.17;;;512.20;2380.80;;;;;;5112633;28;20031;-80
2022/06/12 05:40:18;;;;;;;22.88;20.20;;;512.20;2380.80;;;;;;5112871;28;20027;-79
2022/06/12 05:42:44;;;;;;;24.65;22.38;;;512.10;2380.80;;;;;;5112540;28;20039;-79
2022/06/12 05:45:16;;;;;;;25.50;23.25;;;512.10;2380.80;;;;;;5112494;28;20031;-79
2022/06/12 05:48:15;;;;;;;25.95;23.42;;;512.10;2380.80;;;;;;5112709;28;20020;-77
2022/06/12 05:50:54;;;;;;;23.80;21.45;;;512.10;2380.80;;;;;;5112992;28;20087;-77
2022/06/12 05:53:23;;;;;;;24.75;22.35;;;512.10;2380.80;;;;;;5121237;27;20084;-77
2022/06/12 05:55:48;;;;;;;26.25;23.65;;;512.10;2380.80;;;;;;5123060;27;20478;-76
2022/06/12 05:58:16;;;;;;;27.10;24.63;;;512.10;2380.80;;;;;;5122626;27;20023;-78
2022/06/12 06:00:42;;;;;;;27.42;24.80;;;512.10;2380.80;;;;;;5122881;27;20027;-77
2022/06/12 06:03:08;;;;;;;27.55;24.95;;;512.20;2380.80;;;;;;5122618;27;20023;-77
2022/06/12 06:05:38;;;;;;;27.35;25.00;;;512.20;2380.80;;;;;;5122613;27;20020;-76
2022/06/12 06:08:05;;;;;;;27.98;25.13;;;512.30;2380.80;;;;;;5122832;27;20031;-77
2022/06/12 06:10:31;;;;;;;28.67;25.85;;;512.30;2380.80;;;;;;5122690;27;20076;-77
2022/06/12 06:12:57;;;;;;;28.63;25.77;;;512.40;2380.80;;;;;;5140979;27;20035;-77
2022/06/12 06:15:24;;;;;;;27.55;25.15;;;512.40;2380.80;;;;;;5122740;27;20023;-78
2022/06/12 06:17:52;;;;;;;28.77;25.75;;;512.40;2380.80;;;;;;5122487;27;20027;-76
2022/06/12 06:20:23;;;;;;;27.85;25.48;;;512.40;2380.80;;;;;;5122713;27;20119;-77
2022/06/12 06:22:50;;;;;;;28.75;26.20;;;512.40;2380.80;;;;;;5122726;27;20487;-77
2022/06/12 06:25:17;;;;;;;29.83;27.13;;;512.40;2380.80;;;;;;5122429;27;20023;-77
2022/06/12 06:27:42;;;;;;;29.42;26.80;;;512.40;2380.80;;;;;;5122529;27;20019;-77
2022/06/12 06:30:09;;;;;;;29.70;27.02;;;512.50;2380.80;;;;;;5122478;27;20080;-77
2022/06/12 06:32:35;;;;;;;28.95;26.20;;;512.50;2380.80;;;;;;5140698;27;20027;-77
2022/06/12 06:35:02;;;;;;;27.58;24.98;;;512.60;2380.80;;;;;;5122558;27;20023;-77
2022/06/12 06:37:27;;;;;;;27.58;25.35;;;512.80;2380.80;;;;;;5122394;27;20502;-77
2022/06/12 06:39:53;;;;;;;27.92;25.38;;;512.70;2380.80;;;;;;5122310;27;20064;-78
2022/06/12 06:42:19;;;;;;;26.02;23.55;;;512.70;2380.80;;;;;;5122376;27;20383;-77
2022/06/12 06:47:29;;;;;;;27.05;24.55;;;512.80;2380.80;;;;;;5140651;27;20030;-77
2022/06/12 06:49:55;;;;;;;26.25;23.73;;;512.80;2380.80;;;;;;5122280;27;20034;-77
2022/06/12 06:52:21;;;;;;;26.75;24.38;;;512.90;2380.80;;;;;;5122373;27;20383;-77
2022/06/12 06:54:47;;;;;;;25.23;23.02;;;512.90;2380.80;;;;;;5118394;28;20071;-76
2022/06/12 06:57:13;;;;;;;28.88;26.35;;;512.90;2380.80;;;;;;5118897;28;20051;-78
2022/06/12 06:59:39;;;;;;;27.05;24.80;;;512.90;2380.80;;;;;;5118678;28;20032;-77
2022/06/12 07:02:06;;;;;;;27.20;24.73;;;512.90;2380.80;;;;;;5118680;28;20027;-77
2022/06/12 07:04:32;;;;;;;25.85;23.55;;;512.90;2380.80;;;;;;5116644;28;20030;-77
2022/06/12 07:06:58;;;;;;;25.25;23.00;;;512.90;2380.80;;;;;;5115534;28;20027;-77
2022/06/12 07:09:24;;;;;;;26.77;24.38;;;512.90;2380.80;;;;;;5115577;28;20030;-77
2022/06/12 07:11:50;;;;;;;25.98;23.70;;;537.60;2406.40;;;;;;5115604;28;20024;-77
2022/06/12 07:14:16;;;;;;;26.35;24.05;;;537.60;2406.40;;;;;;5115089;28;20027;-77
2022/06/12 07:16:42;;;;;;;24.52;22.35;;;537.80;2406.40;;;;;;5115313;28;20019;-77
2022/06/12 07:19:08;;;;;;;25.80;23.13;;;537.90;2406.40;;;;;;5114353;28;20114;-78
2022/06/12 07:21:34;;;;;;;25.50;23.10;;;538.00;2406.40;;;;;;5115133;28;20026;-77
2022/06/12 07:24:01;;;;;;;24.05;21.77;;;538.10;2406.40;;;;;;5116629;28;20523;-80
2022/06/12 07:26:37;;;;;;;23.67;21.50;;;538.20;2406.40;;;;;;5115433;28;20038;-80
2022/06/12 07:29:04;;;;;;;25.25;22.67;;;538.30;2406.40;;;;;;5115536;28;20449;-81
2022/06/12 07:31:30;;;;;;;24.42;21.95;;;538.50;2406.40;;;;;;5115226;28;20031;-77
2022/06/12 07:33:56;;;;;;;24.52;22.05;;;538.50;2406.40;;;;;;5115070;28;20028;-77
2022/06/12 07:36:22;;;;;;;25.48;23.13;;;538.50;2406.40;;;;;;5107280;28;20024;-78
2022/06/12 07:38:49;;;;;;;23.13;20.90;;;563.20;2432.00;;;;;;5094878;28;20077;-79
2022/06/12 07:41:16;;;;;;;22.45;20.35;;;563.20;2432.00;;;;;;5094807;28;20475;-77
2022/06/12 07:43:43;;;;;;;22.17;20.25;;;538.50;2406.40;;;;;;5094545;28;20028;-79
2022/06/12 07:46:11;;;;;;;21.63;19.45;;;563.20;2432.00;;;;;;5095164;28;20079;-80
2022/06/12 07:48:38;;;;;;;21.77;19.75;;;563.20;2432.00;;;;;;5094227;28;20036;-81
2022/06/12 07:51:07;;;;;;;24.08;19.85;;;563.20;2432.00;;;;;;5094665;28;20525;-79
2022/06/12 07:53:34;;;;;;;22.42;20.50;;;563.20;2432.00;;;;;;5096940;28;20035;-78
2022/06/12 07:56:01;;;;;;;19.20;17.40;;;563.20;2432.00;;;;;;5116149;27;20376;-78
2022/06/12 07:58:27;;;;;;;18.98;17.27;;;538.50;2406.40;;;;;;5118212;27;20420;-79
2022/06/12 08:00:56;;;;;;;20.80;18.98;;;538.50;2406.40;;;;;;5117901;27;20072;-79
2022/06/12 08:03:24;;;;;;;23.67;20.15;;;538.50;2406.40;;;;;;5117664;27;20115;-79
2022/06/12 08:05:50;;;;;;;20.83;18.92;;;538.50;2406.40;;;;;;5117977;27;20442;-79
2022/06/12 08:08:16;;;;;;;20.95;19.02;;;538.50;2406.40;;;;;;5118015;27;20116;-79
2022/06/12 08:10:42;;;;;;;23.65;21.45;;;538.30;2406.40;;;;;;5117902;27;20039;-80
2022/06/12 08:13:12;;;;;;;21.63;19.73;;;538.40;2406.40;;;;;;5118132;27;20023;-79
2022/06/12 08:15:43;;;;;;;21.58;19.73;;;538.30;2406.40;;;;;;5116277;27;20023;-78
2022/06/12 08:18:09;;;;;;;23.20;20.73;;;538.30;2406.40;;;;;;5117631;27;20015;-79
2022/06/12 08:20:38;;;;;;;20.55;18.75;;;538.30;2406.40;;;;;;5117842;27;20035;-79
2022/06/12 08:23:26;;;;;;;20.83;19.02;;;538.30;2406.40;;;;;;5117690;27;20052;-79
2022/06/12 08:26:08;;;;;;;23.33;21.17;;;538.30;2406.40;;;;;;5097835;28;20020;-79
2022/06/12 08:28:40;;;;;;;;;;;538.30;2406.40;;;;;;5101386;27;20027;-80
2022/06/12 08:31:09;;;;;;;22.17;20.13;;;538.30;2406.40;;;;;;5117800;27;20006;-82
2022/06/12 08:33:37;;;;;;;24.83;21.63;;;538.40;2406.40;;;;;;5107342;28;20526;-78
2022/06/12 08:36:04;;;;;;;23.17;21.10;;;538.50;2406.40;;;;;;5097064;28;20076;-79
2022/06/12 08:38:30;;;;;;;22.17;20.17;;;538.40;2406.40;;;;;;5097010;28;20475;-80
2022/06/12 08:41:12;;;;;;;22.42;20.35;;;538.50;2406.40;;;;;;5103990;27;20115;-81
2022/06/12 08:44:06;;;;;;;21.67;19.75;;;538.50;2406.40;;;;;;5107487;27;20072;-81
2022/06/12 08:46:43;;;;;;;22.13;20.20;;;538.50;2406.40;;;;;;5090792;28;20484;-81
2022/06/12 08:49:35;;;;;;;22.65;20.45;;;538.50;2406.40;;;;;;5107361;27;20023;-81
2022/06/12 08:52:04;;;;;;;23.85;21.48;;;538.40;2406.40;;;;;;5104467;28;20030;-80
2022/06/12 08:54:40;;;;;;;24.58;22.38;;;538.30;2406.40;;;;;;5104553;27;20127;-80
2022/06/12 08:57:21;;;;;;;25.35;22.88;;;538.30;2406.40;;;;;;5124355;27;20439;-78
2022/06/12 08:59:58;;;;;;;26.90;24.05;;;538.20;2406.40;;;;;;5107019;27;20514;-81
2022/06/12 09:02:37;;;;;;;24.23;22.02;;;538.20;2406.40;;;;;;5104461;27;20023;-80
2022/06/12 09:05:06;;;;;;;24.42;22.00;;;538.20;2406.40;;;;;;5109719;27;20418;-80
2022/06/12 09:07:50;;;;;;;24.02;21.70;;;538.20;2406.40;;;;;;5096125;28;20020;-81
2022/06/12 09:10:40;;;;;;;24.05;21.88;;;538.20;2406.40;;;;;;5096299;28;20027;-80
2022/06/12 09:13:24;;;;;;;24.85;22.58;;;538.20;2406.40;;;;;;5096141;28;20485;-81
2022/06/12 09:16:03;;;;;;;31.23;28.23;;;538.20;2406.40;;;;;;5096311;28;20024;-81
2022/06/12 09:18:29;;;;;;;40.95;36.50;;;538.30;2406.40;;;;;;5096263;28;20329;-79
2022/06/12 09:21:24;;;;;;;25.83;23.42;;;538.40;2406.40;;;;;;5095804;28;20114;-79
2022/06/12 09:24:14;;;;;;;25.33;22.70;;;538.40;2406.40;;;;;;5096165;28;20024;-79
2022/06/12 09:26:58;;;;;;;24.58;22.38;;;538.40;2406.40;;;;;;5113796;28;20027;-80
2022/06/12 09:29:47;;;;;;;27.85;25.00;;;538.40;2406.40;;;;;;5096114;28;20488;-79
2022/06/12 09:32:34;;;;;;;25.70;23.27;;;563.40;2432.00;;;;;;5096011;28;20076;-79
2022/06/12 09:35:21;;;;;;;22.98;20.77;;;563.70;2432.00;;;;;;5095676;28;20393;-78
2022/06/12 09:38:26;;;;;;;25.00;22.38;;;563.70;2432.00;;;;;;5096332;28;20480;-80
2022/06/12 09:41:09;;;;;;;25.30;22.90;;;563.80;2432.00;;;;;;5096102;28;20027;-80
2022/06/12 09:43:55;;;;;;;30.42;27.17;;;564.00;2432.00;;;;;;5114310;28;20020;-78
2022/06/12 09:46:35;;;;;;;23.70;21.25;;;564.00;2432.00;;;;;;5096881;28;20028;-80
2022/06/12 09:49:01;;;;;;;22.38;20.17;;;564.00;2432.00;;;;;;5115914;28;20087;-79
2022/06/12 09:51:36;;;;;;;23.20;21.13;;;564.00;2432.00;;;;;;5113669;28;20431;-80
2022/06/12 09:54:05;;;;;;;24.45;22.05;;;588.80;2432.00;;;;;;5096506;28;20071;-80
2022/06/12 09:56:39;;;;;;;22.48;20.27;;;588.90;2432.00;;;;;;5096856;28;20472;-77
2022/06/12 09:59:26;;;;;;;26.25;23.70;;;589.00;2432.00;;;;;;5113899;28;20131;-78
2022/06/12 10:01:57;;;;;;;21.40;19.42;;;589.10;2432.00;;;;;;5095405;28;20567;-78
2022/06/12 10:04:49;;;;;;;20.15;18.38;;;589.50;2432.00;;;;;;5095810;28;20107;-79
2022/06/12 10:08:02;;;;;;;19.80;18.07;;;589.50;2432.00;;;;;;5095801;28;20028;-78
2022/06/12 10:10:36;;;;;;;20.65;18.52;;;589.60;2432.00;;;;;;5102069;28;20468;-77
2022/06/12 10:13:08;;;;;;;22.15;20.15;;;589.60;2432.00;;;;;;5115858;28;20080;-78
2022/06/12 10:15:43;;;;;;;20.42;18.40;;;589.60;2432.00;;;;;;5099086;28;20016;-77
2022/06/12 10:18:27;;;;;;;28.63;24.08;;;589.70;2432.00;;;;;;5095345;28;20034;-81
2022/06/12 10:21:00;;;;;;;20.42;18.40;;;589.70;2432.00;;;;;;5114192;28;20027;-81
2022/06/12 10:23:26;;;;;;;19.95;18.10;;;614.40;2432.00;;;;;;5095999;28;20117;-86
2022/06/12 10:25:56;;;;;;;19.73;17.55;;;589.70;2432.00;;;;;;5096613;28;20032;-86
2022/06/12 10:28:32;;;;;;;20.17;18.48;;;589.60;2432.00;;;;;;5096477;28;20423;-85
2022/06/12 10:31:18;;;;;;;20.90;18.90;;;589.60;2432.00;;;;;;5096087;28;20101;-84
2022/06/12 10:34:05;;;;;;;20.98;19.10;;;589.50;2432.00;;;;;;5102261;28;20011;-84
2022/06/12 10:36:33;;;;;;;21.23;19.13;;;589.60;2432.00;;;;;;5121316;28;20012;-85
2022/06/12 10:39:15;;;;;;;18.35;16.80;;;589.50;2432.00;;;;;;5122971;28;20057;-82
2022/06/12 10:42:00;;;;;;;19.17;17.55;;;589.50;2432.00;;;;;;5103474;28;20388;-85
2022/06/12 10:44:32;;;;;;;18.95;17.25;;;589.50;2432.00;;;;;;5108107;27;20026;-81
2022/06/12 10:47:24;;;;;;;19.58;17.73;;;589.50;2432.00;;;;;;5120611;27;20041;-84
2022/06/12 10:50:16;;;;;;;20.27;18.38;;;589.60;2432.00;;;;;;5120188;27;20038;-83
2022/06/12 10:53:19;;;;;;;20.70;18.73;;;589.40;2432.00;;;;;;5120137;27;20113;-85
2022/06/12 10:56:08;;;;;;;19.73;17.75;;;589.40;2432.00;;;;;;5116058;28;20145;-89
2022/06/12 10:59:04;;;;;;;20.55;18.60;;;589.30;2432.00;;;;;;5116942;28;20024;-87
2022/06/12 11:01:52;;;;;;;22.00;19.88;;;589.30;2432.00;;;;;;5116101;28;20023;-82
2022/06/12 11:04:56;;;;;;;21.08;19.05;;;589.30;2432.00;;;;;;5116041;28;20028;-82
2022/06/12 11:07:40;;;;;;;36.30;30.40;;;589.40;2432.00;;;;;;5117330;28;20098;-83
2022/06/12 11:10:28;;;;;;;21.52;19.63;;;589.60;2432.00;;;;;;5115979;28;20023;-83
2022/06/12 11:13:41;;;;;;;20.70;18.13;;;589.60;2432.00;;;;;;5115464;28;20388;-82
2022/06/12 11:16:28;;;;;;;26.30;23.60;;;589.70;2432.00;;;;;;5115490;28;20067;-81
2022/06/12 11:19:13;;;;;;;22.23;16.95;;;615.10;2432.00;;;;;;5116590;28;20365;-80
2022/06/12 11:21:44;;;;;;;20.17;18.10;;;615.10;2432.00;;;;;;5115624;28;20465;-81
2022/06/12 11:24:17;;;;;;;16.90;15.35;;;640.50;2432.00;;;;;;5115244;28;20028;-81
2022/06/12 11:26:58;;;;;;;16.67;15.07;;;640.70;2432.00;;;;;;5115299;28;20016;-81
2022/06/12 11:29:42;;;;;;;14.93;13.52;;;640.90;2432.00;;;;;;5115386;28;20032;-80
2022/06/12 11:32:17;;;;;;;16.70;15.02;;;665.60;2432.00;;;;;;5115278;28;20445;-81
2022/06/12 11:34:48;;;;;;;15.45;13.75;;;665.70;2432.00;;;;;;5115077;28;20020;-80
2022/06/12 11:37:17;;;;;;;15.93;13.75;;;665.70;2432.00;;;;;;5115182;28;20024;-79
2022/06/12 11:39:51;;;;;;;15.02;13.65;;;666.00;2432.00;;;;;;5114872;28;20055;-79
2022/06/12 11:42:51;;;;;;;21.00;14.23;;;666.00;2432.00;;;;;;5115085;28;20024;-79
2022/06/12 11:45:26;;;;;;;14.63;13.25;;;665.80;2432.00;;;;;;5115897;28;20383;-80
2022/06/12 11:47:59;;;;;;;13.25;11.98;;;666.20;2432.00;;;;;;5114479;28;20104;-80
2022/06/12 11:50:37;;;;;;;14.63;12.25;;;666.50;2432.00;;;;;;5114647;28;20427;-79
2022/06/12 11:53:10;;;;;;;13.75;12.45;;;;;;;;;;5114913;28;20456;-79
2022/06/12 11:55:53;;;;;;;12.90;11.70;;;666.20;2432.00;;;;;;5135260;27;20480;-80
2022/06/12 11:58:40;;;;;;;16.77;11.95;;;665.80;2432.00;;;;;;5136141;27;20019;-80
2022/06/12 12:01:31;;;;;;;12.25;11.05;;;640.90;2432.00;;;;;;5117866;27;20031;-79
2022/06/12 12:04:18;;;;;;;13.30;12.02;;;640.40;2432.00;;;;;;5118012;27;20049;-78
2022/06/12 12:06:49;;;;;;;13.48;11.60;;;640.20;2432.00;;;;;;5118019;27;20076;-78
2022/06/12 12:09:30;;;;;;;13.25;11.98;;;640.20;2432.00;;;;;;5117387;27;20034;-78
2022/06/12 12:12:22;;;;;;;12.43;10.98;;;640.30;2432.00;;;;;;5117891;27;20031;-79
2022/06/12 12:14:50;;;;;;;14.50;13.07;;;640.70;2432.00;;;;;;5090655;28;20036;-79
2022/06/12 12:17:25;;;;;;;13.63;11.63;;;640.80;2432.00;;;;;;5097021;28;20474;-78
2022/06/12 12:20:00;;;;;;;12.60;10.75;;;640.70;2432.00;;;;;;5115589;28;20081;-80
2022/06/12 12:22:53;;;;;;;11.65;10.43;;;640.50;2432.00;;;;;;5115201;28;20461;-80
2022/06/12 12:25:31;;;;;;;12.18;10.98;;;640.50;2432.00;;;;;;5097198;28;20024;-79
2022/06/12 12:28:10;;;;;;;13.18;10.35;;;640.20;2432.00;;;;;;5097146;28;20023;-79
2022/06/12 12:30:41;;;;;;;15.35;12.05;;;640.20;2432.00;;;;;;5096716;28;20080;-80
2022/06/12 12:33:16;;;;;;;13.07;11.13;;;640.40;2432.00;;;;;;5096967;28;20085;-78
2022/06/12 12:41:15;;;;;;;13.55;11.68;;;;;;;;;;5115226;28;20038;-80
2022/06/12 12:43:55;;;;;;;13.00;11.75;;;;;;;;;;5096425;28;20024;-79
2022/06/12 12:46:23;;;;;;;13.48;12.18;;;;;;;;;;5096862;28;20117;-78
2022/06/12 12:48:53;;;;;;;13.18;11.98;;;;;;;;;;5096337;28;20024;-77
2022/06/12 12:51:24;;;;;;;12.90;11.57;;;;;;;;;;5096364;27;20047;-77
2022/06/12 12:53:54;;;;;;;12.65;11.35;;;;;;;;;;5106957;27;20047;-79
2022/06/12 12:56:29;;;;;;;13.65;11.20;;;;;;;;;;5106641;27;20016;-78
2022/06/12 12:58:58;;;;;;;12.68;11.38;;;;;;;;;;5107210;27;20034;-79